createdAt,value
2022-10-26T00:00:20.118Z,18.35
2022-10-26T00:05:05.147Z,15.10
2022-10-26T00:09:50.387Z,19.00
2022-10-26T00:14:35.727Z,15.00
2022-10-26T00:19:23.613Z,15.07
2022-10-26T00:24:09.043Z,14.73
2022-10-26T00:28:57.792Z,16.30
2022-10-26T00:33:43.101Z,11.82
2022-10-26T00:38:31.183Z,14.05
2022-10-26T00:43:36.894Z,13.93
2022-10-26T00:48:27.922Z,13.85
2022-10-26T00:53:15.305Z,9.50
2022-10-26T00:58:05.417Z,10.57
2022-10-26T01:02:53.700Z,10.32
2022-10-26T01:07:39.926Z,13.48
2022-10-26T01:12:25.073Z,11.88
2022-10-26T01:17:35.283Z,11.55
2022-10-26T01:22:23.537Z,18.83
2022-10-26T01:27:21.956Z,16.92
2022-10-26T01:32:15.939Z,21.85
2022-10-26T01:37:09.590Z,16.17
2022-10-26T01:41:58.806Z,17.08
2022-10-26T01:46:47.662Z,16.45
2022-10-26T01:51:36.127Z,20.65
2022-10-26T01:56:23.972Z,15.90
2022-10-26T02:01:24.075Z,18.15
2022-10-26T02:06:19.172Z,12.88
2022-10-26T02:11:16.509Z,13.07
2022-10-26T02:16:08.530Z,17.02
2022-10-26T02:20:58.333Z,14.93
2022-10-26T02:25:50.712Z,13.25
2022-10-26T02:35:28.424Z,14.10
2022-10-26T02:40:17.880Z,14.77
2022-10-26T02:45:07.950Z,15.82
2022-10-26T02:49:55.996Z,15.02
2022-10-26T02:54:51.599Z,11.68
2022-10-26T02:59:39.530Z,15.02
2022-10-26T03:04:31.916Z,15.90
2022-10-26T03:14:06.613Z,13.02
2022-10-26T03:18:51.673Z,12.32
2022-10-26T03:23:36.977Z,12.63
2022-10-26T03:28:24.576Z,17.40
2022-10-26T03:33:09.816Z,15.00
2022-10-26T03:37:54.988Z,11.02
2022-10-26T03:42:40.546Z,13.43
2022-10-26T03:47:28.165Z,9.95
2022-10-26T03:52:13.460Z,13.25
2022-10-26T03:56:58.412Z,12.07
2022-10-26T04:01:43.710Z,14.35
2022-10-26T04:06:31.361Z,10.63
2022-10-26T04:11:16.629Z,13.60
2022-10-26T04:16:01.864Z,13.15
2022-10-26T04:20:47.225Z,10.35
2022-10-26T04:25:36.401Z,7.55
2022-10-26T04:30:21.746Z,13.40
2022-10-26T04:35:07.094Z,11.00
2022-10-26T04:39:52.479Z,9.43
2022-10-26T04:44:40.096Z,11.00
2022-10-26T04:49:25.378Z,8.20
2022-10-26T04:54:10.419Z,8.75
2022-10-26T04:58:57.149Z,13.07
2022-10-26T05:03:44.725Z,11.35
2022-10-26T05:08:31.894Z,13.10
2022-10-26T05:13:16.913Z,13.38
2022-10-26T05:18:03.739Z,8.68
2022-10-26T05:22:55.722Z,12.48
2022-10-26T05:27:41.109Z,10.13
2022-10-26T05:32:26.089Z,11.25
2022-10-26T05:37:11.306Z,8.23
2022-10-26T05:41:58.975Z,7.15
2022-10-26T05:46:44.249Z,10.57
2022-10-26T05:51:29.259Z,16.15
2022-10-26T05:56:21.971Z,16.40
2022-10-26T06:01:22.431Z,11.20
2022-10-26T06:06:10.356Z,15.52
2022-10-26T06:10:56.953Z,14.73
2022-10-26T06:15:55.642Z,14.35
2022-10-26T06:21:01.288Z,10.00
2022-10-26T06:25:58.260Z,5.45
2022-10-26T06:30:43.928Z,9.82
2022-10-26T06:35:40.605Z,14.02
2022-10-26T06:40:29.720Z,10.18
2022-10-26T06:45:17.148Z,8.98
2022-10-26T06:50:13.197Z,10.73
2022-10-26T06:54:59.447Z,7.85
2022-10-26T06:59:51.199Z,9.68
2022-10-26T07:09:21.194Z,10.63
2022-10-26T07:14:06.456Z,10.73
2022-10-26T07:18:54.050Z,6.78
2022-10-26T07:23:39.317Z,16.50
2022-10-26T07:28:24.298Z,7.50
2022-10-26T07:33:12.621Z,12.05
2022-10-26T07:38:04.431Z,11.38
2022-10-26T07:47:34.687Z,10.55
2022-10-26T07:52:20.131Z,9.43
2022-10-26T07:57:07.750Z,9.43
2022-10-26T08:01:53.112Z,8.60
2022-10-26T08:06:38.269Z,9.43
2022-10-26T08:11:23.607Z,7.60
2022-10-26T08:16:12.027Z,12.50
2022-10-26T08:21:01.911Z,5.88
2022-10-26T08:25:55.248Z,6.85
2022-10-26T08:30:40.534Z,7.53
2022-10-26T08:35:28.141Z,10.52
2022-10-26T08:40:19.558Z,6.40
2022-10-26T08:45:07.225Z,9.37
2022-10-26T08:49:59.249Z,10.00
2022-10-26T08:54:51.964Z,6.57
2022-10-26T08:59:41.217Z,6.75
2022-10-26T09:04:30.580Z,8.15
2022-10-26T09:09:20.056Z,8.00
2022-10-26T09:14:16.604Z,11.00
2022-10-26T09:19:29.674Z,13.43
2022-10-26T09:24:17.702Z,5.90
2022-10-26T09:29:09.839Z,5.28
2022-10-26T09:33:56.418Z,9.10
2022-10-26T09:38:45.141Z,12.95
2022-10-26T09:43:36.237Z,13.15
2022-10-26T09:48:30.908Z,9.10
2022-10-26T09:53:16.178Z,9.68
2022-10-26T09:58:04.929Z,6.50
2022-10-26T10:02:54.220Z,10.15
2022-10-26T10:07:41.869Z,6.70
2022-10-26T10:12:28.509Z,9.63
2022-10-26T10:17:24.721Z,9.63
2022-10-26T10:22:15.252Z,7.28
2022-10-26T10:27:05.971Z,9.93
2022-10-26T10:31:58.882Z,5.67
2022-10-26T10:36:43.897Z,6.03
2022-10-26T10:41:32.356Z,8.27
2022-10-26T10:46:25.809Z,8.27
2022-10-26T10:51:13.165Z,10.30
2022-10-26T10:56:26.524Z,10.23
2022-10-26T11:01:16.977Z,8.13
2022-10-26T11:06:13.193Z,10.20
2022-10-26T11:11:06.033Z,6.45
2022-10-26T11:15:55.789Z,6.80
2022-10-26T11:20:45.954Z,5.72
2022-10-26T11:25:38.808Z,6.32
2022-10-26T11:30:25.995Z,8.73
2022-10-26T11:35:17.876Z,7.00
2022-10-26T11:40:13.066Z,7.43
2022-10-26T11:45:07.371Z,5.72
2022-10-26T11:50:00.869Z,6.53
2022-10-26T11:54:52.376Z,10.57
2022-10-26T11:59:45.007Z,8.60
2022-10-26T12:04:35.619Z,6.43
2022-10-26T12:09:25.101Z,9.02
2022-10-26T12:14:21.996Z,7.72
2022-10-26T12:19:12.672Z,13.10
2022-10-26T12:24:02.173Z,9.02
2022-10-26T12:28:51.005Z,7.70
2022-10-26T12:33:52.565Z,7.50
2022-10-26T12:39:02.275Z,6.90
2022-10-26T12:43:51.147Z,10.38
2022-10-26T12:48:44.170Z,6.75
2022-10-26T12:53:29.639Z,9.48
2022-10-26T12:58:55.754Z,10.25
2022-10-26T13:03:56.910Z,7.38
2022-10-26T13:08:45.418Z,7.57
2022-10-26T13:13:34.359Z,10.15
2022-10-26T13:18:22.155Z,9.23
2022-10-26T13:23:19.393Z,8.15
2022-10-26T13:28:08.638Z,6.93
2022-10-26T13:32:57.067Z,6.28
2022-10-26T13:37:47.468Z,12.32
2022-10-26T13:42:42.104Z,5.57
2022-10-26T13:47:32.179Z,10.55
2022-10-26T13:52:21.443Z,6.70
2022-10-26T13:57:20.031Z,6.20
2022-10-26T14:02:30.536Z,7.10
2022-10-26T14:07:21.102Z,4.90
2022-10-26T14:12:06.504Z,5.05
2022-10-26T14:16:53.329Z,3.17
2022-10-26T14:21:50.112Z,2.47
2022-10-26T14:26:43.330Z,1.67
2022-10-26T14:31:30.785Z,2.45
2022-10-26T14:36:17.191Z,4.35
2022-10-26T14:41:05.399Z,7.28
2022-10-26T14:45:52.498Z,5.55
2022-10-26T14:50:37.675Z,4.43
2022-10-26T14:55:23.150Z,5.45
2022-10-26T15:00:18.399Z,4.35
2022-10-26T15:05:06.011Z,3.83
2022-10-26T15:09:53.305Z,3.92
2022-10-26T15:14:39.199Z,3.55
2022-10-26T15:19:28.547Z,3.17
2022-10-26T15:24:33.166Z,5.05
2022-10-26T15:29:39.656Z,3.63
2022-10-26T15:34:28.663Z,4.22
2022-10-26T15:39:13.735Z,1.60
2022-10-26T15:44:01.565Z,3.75
2022-10-26T15:48:50.691Z,4.88
2022-10-26T15:53:39.191Z,4.03
2022-10-26T15:58:24.755Z,5.78
2022-10-26T16:03:13.500Z,3.03
2022-10-26T16:07:58.701Z,5.82
2022-10-26T16:12:46.682Z,4.78
2022-10-26T16:17:32.489Z,6.40
2022-10-26T16:22:17.852Z,4.88
2022-10-26T16:27:02.994Z,5.47
2022-10-26T16:31:51.338Z,3.13
2022-10-26T16:36:38.754Z,5.20
2022-10-26T16:46:11.143Z,5.53
2022-10-26T16:50:59.088Z,2.55
2022-10-26T16:55:44.321Z,3.60
2022-10-26T17:00:29.755Z,4.63
2022-10-26T17:05:14.822Z,4.75
2022-10-26T17:10:03.150Z,5.30
2022-10-26T17:14:48.319Z,7.03
2022-10-26T17:19:33.662Z,3.90
2022-10-26T17:24:19.160Z,5.07
2022-10-26T17:29:07.163Z,10.88
2022-10-26T17:33:52.519Z,9.32
2022-10-26T17:38:39.532Z,8.27
2022-10-26T17:43:24.670Z,8.52
2022-10-26T17:48:12.852Z,9.63
2022-10-26T17:52:58.278Z,11.23
2022-10-26T17:57:43.587Z,33.05
2022-10-26T18:02:30.147Z,28.17
2022-10-26T18:07:18.200Z,31.20
2022-10-26T18:12:03.236Z,40.47
2022-10-26T18:16:48.548Z,13.23
2022-10-26T18:21:37.509Z,18.23
2022-10-26T18:26:28.586Z,15.95
2022-10-26T18:31:15.425Z,10.93
2022-10-26T18:36:05.196Z,15.65
2022-10-26T18:40:55.443Z,9.10
2022-10-26T18:45:44.325Z,5.13
2022-10-26T18:50:29.458Z,6.88
2022-10-26T18:55:14.783Z,20.77
2022-10-26T18:59:59.858Z,18.98
2022-10-26T19:04:47.791Z,14.27
2022-10-26T19:09:32.897Z,13.07
2022-10-26T19:14:18.254Z,7.55
2022-10-26T19:19:03.398Z,8.55
2022-10-26T19:23:53.434Z,8.82
2022-10-26T19:28:38.563Z,7.32
2022-10-26T19:33:23.901Z,5.53
2022-10-26T19:38:08.994Z,5.05
2022-10-26T19:42:56.953Z,6.93
2022-10-26T19:47:41.971Z,5.65
2022-10-26T19:52:27.556Z,10.18
2022-10-26T19:57:12.655Z,5.40
2022-10-26T20:02:00.586Z,5.28
2022-10-26T20:06:45.670Z,4.75
2022-10-26T20:11:32.535Z,5.03
2022-10-26T20:16:19.960Z,7.95
2022-10-26T20:21:09.984Z,7.00
2022-10-26T20:25:55.866Z,4.35
2022-10-26T20:30:42.231Z,5.20
2022-10-26T20:35:27.725Z,5.97
2022-10-26T20:40:17.828Z,4.82
2022-10-26T20:45:09.878Z,4.40
2022-10-26T20:49:55.959Z,5.60
2022-10-26T20:54:47.750Z,8.38
2022-10-26T20:59:42.078Z,4.95
2022-10-26T21:04:27.190Z,9.55
2022-10-26T21:09:12.540Z,8.63
2022-10-26T21:13:58.200Z,10.02
2022-10-26T21:18:46.531Z,10.52
2022-10-26T21:23:34.924Z,12.57
2022-10-26T21:28:20.279Z,9.07
2022-10-26T21:33:05.304Z,12.65
2022-10-26T21:37:53.321Z,12.15
2022-10-26T21:42:38.534Z,9.60
2022-10-26T21:47:23.956Z,12.93
2022-10-26T21:52:09.945Z,12.05
2022-10-26T21:56:57.907Z,14.00
2022-10-26T22:01:43.047Z,16.95
2022-10-26T22:06:28.381Z,16.02
2022-10-26T22:11:15.845Z,14.45
2022-10-26T22:16:10.513Z,19.73
2022-10-26T22:20:59.451Z,20.83
2022-10-26T22:25:46.791Z,19.95
2022-10-26T22:30:32.428Z,20.38
2022-10-26T22:35:35.589Z,20.70
2022-10-26T22:40:20.913Z,21.45
2022-10-26T22:45:06.160Z,22.65
2022-10-26T22:49:51.516Z,21.92
2022-10-26T22:54:39.097Z,24.40
2022-10-26T22:59:24.354Z,27.08
2022-10-26T23:04:09.386Z,24.67
2022-10-26T23:08:54.846Z,28.60
2022-10-26T23:13:43.051Z,24.52
2022-10-26T23:18:28.374Z,23.95
2022-10-26T23:23:13.447Z,25.08
2022-10-26T23:27:58.697Z,22.33
2022-10-26T23:32:46.615Z,20.90
2022-10-26T23:37:31.967Z,25.88
2022-10-26T23:42:16.982Z,23.27
2022-10-26T23:47:02.230Z,23.90
2022-10-26T23:51:49.854Z,23.00
2022-10-26T23:56:35.127Z,21.55
